createdAt,value
2023-05-05T00:02:14.676Z,9.91
2023-05-05T00:04:47.000Z,9.88
2023-05-05T00:07:20.513Z,9.87
2023-05-05T00:09:54.923Z,9.88
2023-05-05T00:12:28.730Z,9.88
2023-05-05T00:15:03.482Z,9.90
2023-05-05T00:17:35.926Z,9.96
2023-05-05T00:20:13.757Z,10.01
2023-05-05T00:22:48.811Z,10.01
2023-05-05T00:25:21.459Z,10.02
2023-05-05T00:27:53.982Z,10.02
2023-05-05T00:30:30.609Z,10.00
2023-05-05T00:33:02.501Z,9.98
2023-05-05T00:35:34.648Z,10.00
2023-05-05T00:38:06.200Z,9.99
2023-05-05T00:40:38.434Z,10.01
2023-05-05T00:43:11.749Z,10.04
2023-05-05T00:45:48.117Z,10.03
2023-05-05T00:48:24.903Z,10.06
2023-05-05T00:50:57.850Z,10.11
2023-05-05T00:53:32.984Z,10.13
2023-05-05T00:56:08.597Z,10.18
2023-05-05T00:58:44.216Z,10.19
2023-05-05T01:01:18.516Z,10.15
2023-05-05T01:03:51.014Z,10.12
2023-05-05T01:06:39.714Z,10.09
2023-05-05T01:09:19.612Z,10.05
2023-05-05T01:11:57.640Z,10.05
2023-05-05T01:14:40.172Z,10.05
2023-05-05T01:17:20.356Z,10.03
2023-05-05T01:20:13.048Z,10.06
2023-05-05T01:22:48.802Z,10.07
2023-05-05T01:26:12.492Z,10.02
2023-05-05T01:29:17.807Z,9.95
2023-05-05T01:31:53.848Z,9.88
2023-05-05T01:34:33.830Z,9.87
2023-05-05T01:37:12.315Z,9.87
2023-05-05T01:39:50.291Z,9.89
2023-05-05T01:42:25.109Z,9.85
2023-05-05T01:45:01.092Z,9.79
2023-05-05T01:47:33.790Z,9.74
2023-05-05T01:50:10.243Z,9.72
2023-05-05T01:52:42.612Z,9.70
2023-05-05T01:55:18.830Z,9.69
2023-05-05T01:57:54.572Z,9.65
2023-05-05T02:00:29.248Z,9.65
2023-05-05T02:03:10.342Z,9.59
2023-05-05T02:05:45.646Z,9.54
2023-05-05T02:08:27.099Z,9.46
2023-05-05T02:11:00.738Z,9.38
2023-05-05T02:13:34.820Z,9.31
2023-05-05T02:16:08.661Z,9.32
2023-05-05T02:18:43.987Z,9.31
2023-05-05T02:21:18.873Z,9.27
2023-05-05T02:24:01.679Z,9.25
2023-05-05T02:26:36.541Z,9.21
2023-05-05T02:29:15.982Z,9.19
2023-05-05T02:31:53.426Z,9.17
2023-05-05T02:34:28.919Z,9.13
2023-05-05T02:37:04.596Z,9.13
2023-05-05T02:39:48.120Z,9.12
2023-05-05T02:42:27.940Z,9.07
2023-05-05T02:45:05.707Z,9.06
2023-05-05T02:47:40.266Z,9.03
2023-05-05T02:50:13.901Z,8.99
2023-05-05T02:52:54.078Z,8.95
2023-05-05T02:55:33.234Z,8.93
2023-05-05T02:58:09.451Z,8.87
2023-05-05T03:00:54.779Z,8.78
2023-05-05T03:03:32.167Z,8.76
2023-05-05T03:06:14.947Z,8.78
2023-05-05T03:08:59.375Z,8.81
2023-05-05T03:11:37.281Z,8.81
2023-05-05T03:14:13.199Z,8.79
2023-05-05T03:16:47.904Z,8.77
2023-05-05T03:19:31.689Z,8.75
2023-05-05T03:22:06.670Z,8.70
2023-05-05T03:24:39.151Z,8.73
2023-05-05T03:27:18.105Z,8.77
2023-05-05T03:29:49.066Z,8.75
2023-05-05T03:32:25.305Z,8.77
2023-05-05T03:34:59.700Z,8.79
2023-05-05T03:37:37.653Z,8.78
2023-05-05T03:40:14.784Z,8.75
2023-05-05T03:42:47.373Z,8.78
2023-05-05T03:45:22.525Z,8.79
2023-05-05T03:47:54.346Z,8.82
2023-05-05T03:50:26.557Z,8.83
2023-05-05T03:53:01.301Z,8.77
2023-05-05T03:55:36.194Z,8.79
2023-05-05T03:58:08.328Z,8.82
2023-05-05T04:00:41.272Z,8.82
2023-05-05T04:03:18.317Z,8.76
2023-05-05T04:05:50.454Z,8.70
2023-05-05T04:08:24.204Z,8.75
2023-05-05T04:10:57.941Z,8.75
2023-05-05T04:13:32.698Z,8.76
2023-05-05T04:16:06.044Z,8.78
2023-05-05T04:18:37.942Z,8.81
2023-05-05T04:21:11.001Z,8.86
2023-05-05T04:23:40.982Z,8.87
2023-05-05T04:26:13.393Z,8.84
2023-05-05T04:28:45.841Z,8.81
2023-05-05T04:31:19.203Z,8.84
2023-05-05T04:33:51.078Z,8.92
2023-05-05T04:36:24.154Z,8.94
2023-05-05T04:38:56.260Z,8.96
2023-05-05T04:41:30.516Z,9.00
2023-05-05T04:43:59.854Z,9.04
2023-05-05T04:46:31.726Z,9.10
2023-05-05T04:49:05.289Z,9.12
2023-05-05T04:51:42.980Z,9.14
2023-05-05T04:54:12.873Z,9.11
2023-05-05T04:56:46.035Z,9.16
2023-05-05T04:59:19.772Z,9.14
2023-05-05T05:01:58.295Z,9.18
2023-05-05T05:04:28.830Z,9.27
2023-05-05T05:07:01.747Z,9.35
2023-05-05T05:09:35.855Z,9.34
2023-05-05T05:12:11.531Z,9.39
2023-05-05T05:14:44.630Z,9.44
2023-05-05T05:17:16.511Z,9.44
2023-05-05T05:19:48.139Z,9.47
2023-05-05T05:22:22.722Z,9.50
2023-05-05T05:24:55.805Z,9.53
2023-05-05T05:27:27.829Z,9.66
2023-05-05T05:29:59.371Z,9.77
2023-05-05T05:32:33.334Z,9.85
2023-05-05T05:35:09.824Z,9.90
2023-05-05T05:37:46.528Z,9.88
2023-05-05T05:40:22.796Z,9.84
2023-05-05T05:43:13.662Z,9.76
2023-05-05T05:45:46.991Z,9.78
2023-05-05T05:48:24.437Z,9.74
2023-05-05T05:50:57.738Z,9.75
2023-05-05T05:53:30.525Z,9.83
2023-05-05T05:56:10.413Z,9.87
2023-05-05T05:58:43.270Z,9.92
2023-05-05T06:01:18.776Z,10.01
2023-05-05T06:03:52.571Z,10.06
2023-05-05T06:06:27.438Z,10.04
2023-05-05T06:09:00.303Z,9.91
2023-05-05T06:11:33.522Z,9.91
2023-05-05T06:14:06.423Z,9.93
2023-05-05T06:16:39.702Z,9.91
2023-05-05T06:19:15.169Z,9.90
2023-05-05T06:21:48.373Z,9.79
2023-05-05T06:24:22.011Z,9.75
2023-05-05T06:26:53.457Z,9.84
2023-05-05T06:29:25.227Z,9.93
2023-05-05T06:31:57.654Z,9.99
2023-05-05T06:34:30.132Z,9.96
2023-05-05T06:37:02.242Z,9.79
2023-05-05T06:39:37.386Z,9.75
2023-05-05T06:42:10.294Z,9.74
2023-05-05T06:44:42.145Z,9.63
2023-05-05T06:47:14.875Z,9.53
2023-05-05T06:49:46.412Z,9.55
2023-05-05T06:52:18.996Z,9.53
2023-05-05T06:54:50.106Z,9.52
2023-05-05T06:57:26.313Z,9.48
2023-05-05T06:59:57.137Z,9.42
2023-05-05T07:02:30.784Z,9.45
2023-05-05T07:05:02.542Z,9.51
2023-05-05T07:07:35.248Z,9.56
2023-05-05T07:10:09.738Z,9.54
2023-05-05T07:12:45.752Z,9.48
2023-05-05T07:15:27.993Z,9.41
2023-05-05T07:18:02.341Z,9.39
2023-05-05T07:20:33.265Z,9.38
2023-05-05T07:23:06.467Z,9.43
2023-05-05T07:25:39.008Z,9.43
2023-05-05T07:28:12.711Z,9.43
2023-05-05T07:30:45.687Z,9.47
2023-05-05T07:33:20.144Z,9.48
2023-05-05T07:35:53.709Z,9.50
2023-05-05T07:38:26.625Z,9.50
2023-05-05T07:40:59.380Z,9.51
2023-05-05T07:43:31.936Z,9.49
2023-05-05T07:46:04.186Z,9.45
2023-05-05T07:48:36.851Z,9.41
2023-05-05T07:51:11.402Z,9.36
2023-05-05T07:53:44.304Z,9.37
2023-05-05T07:56:26.715Z,9.35
2023-05-05T07:59:01.333Z,9.37
2023-05-05T08:01:42.271Z,9.45
2023-05-05T08:04:17.813Z,9.47
2023-05-05T08:06:55.817Z,9.41
2023-05-05T08:09:35.817Z,9.45
2023-05-05T08:12:08.320Z,9.47
2023-05-05T08:14:50.428Z,9.53
2023-05-05T08:17:25.400Z,9.55
2023-05-05T08:19:58.997Z,9.49
2023-05-05T08:22:32.769Z,9.49
2023-05-05T08:25:06.020Z,9.61
2023-05-05T08:27:42.083Z,9.63
2023-05-05T08:30:28.041Z,9.63
2023-05-05T08:33:03.817Z,9.67
2023-05-05T08:35:40.842Z,9.77
2023-05-05T08:38:41.512Z,9.80
2023-05-05T08:41:18.805Z,9.89
2023-05-05T08:43:56.353Z,9.93
2023-05-05T08:46:32.302Z,10.00
2023-05-05T08:49:14.284Z,10.04
2023-05-05T08:52:00.650Z,9.99
2023-05-05T08:54:35.099Z,9.99
2023-05-05T08:57:15.203Z,10.11
2023-05-05T08:59:51.155Z,10.23
2023-05-05T09:02:32.740Z,10.30
2023-05-05T09:05:09.007Z,10.38
2023-05-05T09:07:46.601Z,10.44
2023-05-05T09:10:21.491Z,10.62
2023-05-05T09:12:57.674Z,10.78
2023-05-05T09:15:30.385Z,10.82
2023-05-05T09:18:05.255Z,10.74
2023-05-05T09:20:45.705Z,10.82
2023-05-05T09:23:19.902Z,10.90
2023-05-05T09:26:10.614Z,11.03
2023-05-05T09:28:54.712Z,11.15
2023-05-05T09:31:47.566Z,11.29
2023-05-05T09:34:23.552Z,11.46
2023-05-05T09:36:59.241Z,11.51
2023-05-05T09:39:33.061Z,11.49
2023-05-05T09:42:21.080Z,11.50
2023-05-05T09:45:01.518Z,11.48
2023-05-05T09:47:37.669Z,11.49
2023-05-05T09:50:16.369Z,11.45
2023-05-05T09:53:08.055Z,11.42
2023-05-05T09:55:48.411Z,11.42
2023-05-05T09:58:24.610Z,11.39
2023-05-05T10:01:03.207Z,11.40
2023-05-05T10:03:58.999Z,11.44
2023-05-05T10:07:01.630Z,11.46
2023-05-05T10:09:36.137Z,11.46
2023-05-05T10:12:10.120Z,11.43
2023-05-05T10:14:45.929Z,11.44
2023-05-05T10:17:22.687Z,11.42
2023-05-05T10:20:08.586Z,11.46
2023-05-05T10:22:52.345Z,11.59
2023-05-05T10:25:39.594Z,11.72
2023-05-05T10:28:22.027Z,11.78
2023-05-05T10:31:10.082Z,11.88
2023-05-05T10:34:08.767Z,11.93
2023-05-05T10:36:43.108Z,12.03
2023-05-05T10:39:21.000Z,12.18
2023-05-05T10:42:01.416Z,12.30
2023-05-05T10:44:34.480Z,12.38
2023-05-05T10:47:18.923Z,12.41
2023-05-05T10:50:03.951Z,12.42
2023-05-05T10:52:56.081Z,12.51
2023-05-05T10:55:42.072Z,12.61
2023-05-05T10:58:51.640Z,12.66
2023-05-05T11:01:34.286Z,12.72
2023-05-05T11:04:23.593Z,12.71
2023-05-05T11:07:27.904Z,12.73
2023-05-05T11:10:24.635Z,12.72
2023-05-05T11:13:21.140Z,12.81
2023-05-05T11:15:54.930Z,12.88
2023-05-05T11:18:45.909Z,12.95
2023-05-05T11:21:22.166Z,13.02
2023-05-05T11:28:08.669Z,13.04
2023-05-05T11:31:17.047Z,13.07
2023-05-05T11:33:55.079Z,13.05
2023-05-05T11:36:45.551Z,13.06
2023-05-05T11:39:30.561Z,13.09
2023-05-05T11:42:35.439Z,13.07
2023-05-05T11:45:31.713Z,13.05
2023-05-05T11:48:36.035Z,13.11
2023-05-05T11:51:15.136Z,13.19
2023-05-05T11:53:53.725Z,13.27
2023-05-05T11:56:33.117Z,13.30
2023-05-05T11:59:12.058Z,13.35
2023-05-05T12:01:54.811Z,13.36
2023-05-05T12:04:44.679Z,13.43
2023-05-05T12:07:20.586Z,13.47
2023-05-05T12:09:52.840Z,13.50
2023-05-05T12:12:41.778Z,13.55
2023-05-05T12:15:20.883Z,13.62
2023-05-05T12:17:57.151Z,13.65
2023-05-05T12:20:42.609Z,13.67
2023-05-05T12:23:17.659Z,13.72
2023-05-05T12:25:51.691Z,13.74
2023-05-05T12:28:47.612Z,13.79
2023-05-05T12:31:22.772Z,13.84
2023-05-05T12:33:59.415Z,13.87
2023-05-05T12:36:36.463Z,13.94
2023-05-05T12:39:07.812Z,14.01
2023-05-05T12:41:42.245Z,14.05
2023-05-05T12:44:20.129Z,14.11
2023-05-05T12:46:57.039Z,14.16
2023-05-05T12:49:28.112Z,14.16
2023-05-05T12:52:04.641Z,14.21
2023-05-05T12:54:52.942Z,14.29
2023-05-05T12:57:30.461Z,14.33
2023-05-05T13:00:17.176Z,14.38
2023-05-05T13:02:57.448Z,14.45
2023-05-05T13:05:41.067Z,14.53
2023-05-05T13:08:13.738Z,14.61
2023-05-05T13:11:01.511Z,14.68
2023-05-05T13:13:36.853Z,14.71
2023-05-05T13:16:21.776Z,14.75
2023-05-05T13:18:59.270Z,14.74
2023-05-05T13:21:34.394Z,14.74
2023-05-05T13:24:23.715Z,14.77
2023-05-05T13:27:04.976Z,14.81
2023-05-05T13:29:41.346Z,14.83
2023-05-05T13:32:19.032Z,14.95
2023-05-05T13:34:49.892Z,15.06
2023-05-05T13:37:29.096Z,15.06
2023-05-05T13:40:08.642Z,14.96
2023-05-05T13:42:45.982Z,14.91
2023-05-05T13:45:19.587Z,14.93
2023-05-05T13:47:54.864Z,14.98
2023-05-05T13:50:31.482Z,15.00
2023-05-05T13:53:06.012Z,15.03
2023-05-05T13:55:40.378Z,15.02
2023-05-05T13:58:22.109Z,15.03
2023-05-05T14:00:55.960Z,15.00
2023-05-05T14:03:34.137Z,15.01
2023-05-05T14:06:11.506Z,15.07
2023-05-05T14:08:50.500Z,15.08
2023-05-05T14:11:23.786Z,15.10
2023-05-05T14:13:57.850Z,15.19
2023-05-05T14:16:29.868Z,15.23
2023-05-05T14:19:03.962Z,15.26
2023-05-05T14:21:37.907Z,15.27
2023-05-05T14:24:10.321Z,15.24
2023-05-05T14:26:49.291Z,15.19
2023-05-05T14:29:22.939Z,15.14
2023-05-05T14:31:55.107Z,15.13
2023-05-05T14:34:28.033Z,15.14
2023-05-05T14:37:02.032Z,15.14
2023-05-05T14:39:34.974Z,15.14
2023-05-05T14:42:07.972Z,15.15
2023-05-05T14:44:39.854Z,15.15
2023-05-05T14:47:11.712Z,15.20
2023-05-05T14:49:44.147Z,15.29
2023-05-05T14:52:16.739Z,15.36
2023-05-05T14:54:49.151Z,15.40
2023-05-05T14:57:21.737Z,15.46
2023-05-05T14:59:55.171Z,15.49
2023-05-05T15:02:25.765Z,15.50
2023-05-05T15:04:58.550Z,15.48
2023-05-05T15:07:30.407Z,15.51
2023-05-05T15:10:02.013Z,15.53
2023-05-05T15:12:37.643Z,15.60
2023-05-05T15:15:12.472Z,15.64
2023-05-05T15:17:46.160Z,15.62
2023-05-05T15:20:21.016Z,15.59
2023-05-05T15:22:54.853Z,15.58
2023-05-05T15:25:27.622Z,15.55
2023-05-05T15:28:05.360Z,15.49
2023-05-05T15:30:42.559Z,15.45
2023-05-05T15:33:17.181Z,15.44
2023-05-05T15:35:52.192Z,15.45
2023-05-05T15:38:25.537Z,15.44
2023-05-05T15:40:58.025Z,15.45
2023-05-05T15:43:36.017Z,15.46
2023-05-05T15:46:09.177Z,15.49
2023-05-05T15:48:42.777Z,15.52
2023-05-05T15:51:21.715Z,15.56
2023-05-05T15:53:58.146Z,15.55
2023-05-05T15:56:40.001Z,15.57
2023-05-05T15:59:14.064Z,15.66
2023-05-05T16:01:47.181Z,15.74
2023-05-05T16:04:20.272Z,15.76
2023-05-05T16:06:54.266Z,15.69
2023-05-05T16:09:31.458Z,15.66
2023-05-05T16:12:09.466Z,15.68
2023-05-05T16:14:41.881Z,15.66
2023-05-05T16:17:15.506Z,15.63
2023-05-05T16:19:50.590Z,15.66
2023-05-05T16:22:28.217Z,15.65
2023-05-05T16:25:02.989Z,15.57
2023-05-05T16:27:35.218Z,15.51
2023-05-05T16:30:15.568Z,15.51
2023-05-05T16:32:51.420Z,15.55
2023-05-05T16:35:23.977Z,15.64
2023-05-05T16:37:58.068Z,15.69
2023-05-05T16:40:30.352Z,15.75
2023-05-05T16:43:03.230Z,15.78
2023-05-05T16:45:34.826Z,15.81
2023-05-05T16:48:09.212Z,15.80
2023-05-05T16:50:42.242Z,15.71
2023-05-05T16:53:13.939Z,15.68
2023-05-05T16:55:48.755Z,15.58
2023-05-05T16:58:22.484Z,15.46
2023-05-05T17:00:55.766Z,15.36
2023-05-05T17:03:28.589Z,15.25
2023-05-05T17:06:04.017Z,15.19
2023-05-05T17:08:36.361Z,15.17
2023-05-05T17:11:10.168Z,15.09
2023-05-05T17:13:43.052Z,15.03
2023-05-05T17:16:16.235Z,14.96
2023-05-05T17:18:47.874Z,14.91
2023-05-05T17:21:20.098Z,14.87
2023-05-05T17:23:51.995Z,14.84
2023-05-05T17:26:24.701Z,14.81
2023-05-05T17:28:56.970Z,14.76
2023-05-05T17:31:32.091Z,14.73
2023-05-05T17:34:04.515Z,14.66
2023-05-05T17:36:57.555Z,14.61
2023-05-05T17:39:32.483Z,14.53
2023-05-05T17:42:05.101Z,14.45
2023-05-05T17:44:38.573Z,14.39
2023-05-05T17:47:08.566Z,14.32
2023-05-05T17:49:40.003Z,14.24
2023-05-05T17:52:12.125Z,14.18
2023-05-05T17:54:48.474Z,14.14
2023-05-05T17:57:21.530Z,14.10
2023-05-05T17:59:57.981Z,13.92
2023-05-05T18:02:32.894Z,13.57
2023-05-05T18:05:03.821Z,13.34
2023-05-05T18:07:40.705Z,13.12
2023-05-05T18:10:14.932Z,12.95
2023-05-05T18:12:48.151Z,12.72
2023-05-05T18:15:26.981Z,12.51
2023-05-05T18:17:59.593Z,12.40
2023-05-05T18:20:32.538Z,12.23
2023-05-05T18:23:05.387Z,12.11
2023-05-05T18:25:41.078Z,12.05
2023-05-05T18:28:15.444Z,11.92
2023-05-05T18:30:48.893Z,11.75
2023-05-05T18:33:20.418Z,11.69
2023-05-05T18:35:57.167Z,11.55
2023-05-05T18:38:28.027Z,11.40
2023-05-05T18:41:01.202Z,11.31
2023-05-05T18:43:38.049Z,11.22
2023-05-05T18:46:11.314Z,11.10
2023-05-05T18:48:42.303Z,11.06
2023-05-05T18:51:15.905Z,10.92
2023-05-05T18:53:51.803Z,10.80
2023-05-05T18:56:23.607Z,10.74
2023-05-05T18:58:55.741Z,10.67
2023-05-05T19:01:32.944Z,10.58
2023-05-05T19:04:18.789Z,10.39
2023-05-05T19:06:59.489Z,10.24
2023-05-05T19:09:32.252Z,10.16
2023-05-05T19:12:03.421Z,10.08
2023-05-05T19:14:39.422Z,10.01
2023-05-05T19:17:11.705Z,9.98
2023-05-05T19:19:47.191Z,9.93
2023-05-05T19:22:21.354Z,9.84
2023-05-05T19:24:54.640Z,9.77
2023-05-05T19:27:33.912Z,9.65
2023-05-05T19:30:06.561Z,9.59
2023-05-05T19:32:40.809Z,9.52
2023-05-05T19:35:14.005Z,9.53
2023-05-05T19:37:46.876Z,9.50
2023-05-05T19:40:18.779Z,9.45
2023-05-05T19:42:52.026Z,9.38
2023-05-05T19:45:29.311Z,9.28
2023-05-05T19:48:04.186Z,9.17
2023-05-05T19:50:35.592Z,9.11
2023-05-05T19:53:06.135Z,9.09
2023-05-05T19:55:39.606Z,9.10
2023-05-05T19:58:13.090Z,9.04
2023-05-05T20:00:48.599Z,9.01
2023-05-05T20:03:21.306Z,8.97
2023-05-05T20:06:04.528Z,8.95
2023-05-05T20:08:38.779Z,8.90
2023-05-05T20:11:12.617Z,8.87
2023-05-05T20:13:47.732Z,8.84
2023-05-05T20:16:24.368Z,8.77
2023-05-05T20:18:56.600Z,8.68
2023-05-05T20:21:28.542Z,8.64
2023-05-05T20:24:05.314Z,8.59
2023-05-05T20:26:39.521Z,8.60
2023-05-05T20:29:14.731Z,8.56
2023-05-05T20:31:47.832Z,8.53
2023-05-05T20:34:25.378Z,8.47
2023-05-05T20:37:00.138Z,8.44
2023-05-05T20:39:37.570Z,8.46
2023-05-05T20:42:07.773Z,8.49
2023-05-05T20:44:41.602Z,8.48
2023-05-05T20:47:22.352Z,8.51
2023-05-05T20:49:54.490Z,8.53
2023-05-05T20:52:27.684Z,8.53
2023-05-05T20:55:01.250Z,8.53
2023-05-05T20:57:32.041Z,8.53
2023-05-05T21:00:05.383Z,8.52
2023-05-05T21:02:40.309Z,8.51
2023-05-05T21:05:14.550Z,8.49
2023-05-05T21:07:46.654Z,8.50
2023-05-05T21:10:20.261Z,8.50
2023-05-05T21:12:52.907Z,8.49
2023-05-05T21:15:26.588Z,8.48
2023-05-05T21:17:59.277Z,8.42
2023-05-05T21:20:32.715Z,8.44
2023-05-05T21:23:05.906Z,8.45
2023-05-05T21:25:38.062Z,8.43
2023-05-05T21:28:10.599Z,8.44
2023-05-05T21:30:43.708Z,8.46
2023-05-05T21:33:15.188Z,8.45
2023-05-05T21:35:46.689Z,8.45
2023-05-05T21:38:21.751Z,8.38
2023-05-05T21:40:58.515Z,8.41
2023-05-05T21:43:39.350Z,8.42
2023-05-05T21:46:12.521Z,8.42
2023-05-05T21:48:43.594Z,8.40
2023-05-05T21:51:14.877Z,8.41
2023-05-05T21:53:47.595Z,8.42
2023-05-05T21:56:20.323Z,8.43
2023-05-05T21:58:54.175Z,8.45
2023-05-05T22:01:26.629Z,8.45
2023-05-05T22:03:59.305Z,8.49
2023-05-05T22:06:32.671Z,8.51
2023-05-05T22:09:05.327Z,8.50
2023-05-05T22:11:37.406Z,8.51
2023-05-05T22:14:08.351Z,8.52
2023-05-05T22:16:42.464Z,8.53
2023-05-05T22:19:13.703Z,8.55
2023-05-05T22:21:45.961Z,8.56
2023-05-05T22:24:19.796Z,8.56
2023-05-05T22:26:51.672Z,8.58
2023-05-05T22:29:26.863Z,8.59
2023-05-05T22:31:56.841Z,8.61
2023-05-05T22:34:30.026Z,8.62
2023-05-05T22:37:01.872Z,8.63
2023-05-05T22:39:35.480Z,8.64
2023-05-05T22:42:10.798Z,8.67
2023-05-05T22:44:43.237Z,8.65
2023-05-05T22:47:14.667Z,8.67
2023-05-05T22:49:46.933Z,8.70
2023-05-05T22:52:18.824Z,8.70
2023-05-05T22:54:52.255Z,8.70
2023-05-05T22:57:24.859Z,8.71
2023-05-05T22:59:57.665Z,8.72
2023-05-05T23:02:31.807Z,8.72
2023-05-05T23:05:04.121Z,8.71
2023-05-05T23:07:37.056Z,8.69
2023-05-05T23:10:11.471Z,8.70
2023-05-05T23:12:44.860Z,8.69
2023-05-05T23:15:17.467Z,8.65
2023-05-05T23:17:48.494Z,8.62
2023-05-05T23:20:21.131Z,8.61
2023-05-05T23:22:53.345Z,8.59
2023-05-05T23:25:25.018Z,8.58
2023-05-05T23:27:56.601Z,8.57
2023-05-05T23:30:29.163Z,8.57
2023-05-05T23:33:05.129Z,8.54
2023-05-05T23:35:38.840Z,8.50
2023-05-05T23:38:13.097Z,8.48
2023-05-05T23:40:44.153Z,8.47
2023-05-05T23:43:18.570Z,8.48
2023-05-05T23:45:51.211Z,8.46
2023-05-05T23:48:22.724Z,8.45
2023-05-05T23:50:54.431Z,8.44
2023-05-05T23:53:27.560Z,8.41
2023-05-05T23:55:58.618Z,8.40
2023-05-05T23:58:30.383Z,8.37
